Rugby, ND

7:28 PM CST on December 16, 2017 (GMT -0600)
Rugby Municipal

Weather History for KRUG - October, 2012

Change the Weather History Date:

Wednesday, October 10, 2012

  Actual Average Record
Temperature  
Mean Temperature 30 °F -  
Max Temperature 37 °F 57 °F 85 °F (1955)
Min Temperature 24 °F 34 °F 10 °F (1987)
Degree Days  
Heating Degree Days 34    
Moisture  
Dew Point 30 °F    
Average Humidity 94    
Maximum Humidity 100    
Minimum Humidity 81    
Precipitation  
Precipitation 0.02 in - - ()
Sea Level Pressure  
Sea Level Pressure 29.94 in    
Wind  
Wind Speed 6 mph (West)    
Max Wind Speed 13 mph    
Max Gust Speed 18 mph    
Visibility 9 miles    
Events Rain , Snow    
Averages and records for this station are not official NWS values.
T = Trace of Precipitation, MM = Missing Value Source: NWS Daily Summary

Daily Weather History Graph

Daily Weather History Graph

Search for Another Location

Airport or City:

Trip Planner

Search our weather history database for the weather conditions in past years. The results will help you decide how hot, cold, wet, or windy it might be!

Date:

Astronomy

Oct. 10, 2012 Rise Set
Actual Time 7:53 AM CDT 6:59 PM CDT
Civil Twilight 7:21 AM CDT 7:31 PM CDT
Nautical Twilight 6:45 AM CDT 8:07 PM CDT
Astronomical Twilight 6:09 AM CDT 8:43 PM CDT
Moon 2:07 AM CDT (10/10) 4:23 PM CDT (10/10)
Length of Visible Light 12h 09m
Length of Day
11h 06m
Waning Crescent, 27% of the Moon is Illuminated
Oct 10
Waning Crescent
Oct 15
New
Oct 21
First Quarter
Oct 29
Full
Nov 6
Last Quarter

Hourly Weather History & Observations

Time (CDT) Temp. Windchill Dew Point Humidity Pressure Visibility Wind Dir Wind Speed Gust Speed Precip Events Conditions
12:15 AM 30.2 °F 22.6 °F 28.4 °F 93% 29.99 in 10.0 mi West 8.1 mph - N/A   Overcast
12:35 AM 32.0 °F 25.6 °F 28.4 °F 87% 29.99 in 10.0 mi WSW 6.9 mph - N/A   Overcast
12:55 AM 32.0 °F 25.6 °F 28.4 °F 87% 29.99 in 10.0 mi WSW 6.9 mph - N/A   Overcast
1:15 AM 30.2 °F 24.3 °F 28.4 °F 93% 29.99 in 10.0 mi WSW 5.8 mph - N/A   Mostly Cloudy
1:35 AM 28.4 °F 21.2 °F 26.6 °F 93% 29.99 in 10.0 mi West 6.9 mph - N/A   Overcast
1:55 AM 28.4 °F 24.6 °F 26.6 °F 93% 29.99 in 10.0 mi WSW 3.5 mph - N/A   Mostly Cloudy
2:15 AM 28.4 °F 24.6 °F 26.6 °F 93% 29.98 in 10.0 mi SW 3.5 mph - N/A   Mostly Cloudy
2:35 AM 28.4 °F 22.2 °F 26.6 °F 93% 29.98 in 10.0 mi West 5.8 mph - N/A   Clear
2:55 AM 28.4 °F 21.2 °F 26.6 °F 93% 29.98 in 10.0 mi West 6.9 mph - N/A   Clear
3:15 AM 26.6 °F 18.2 °F 24.8 °F 93% 29.99 in 10.0 mi West 8.1 mph - N/A   Clear
3:35 AM 24.8 °F 16.9 °F 24.8 °F 100% 29.99 in 10.0 mi West 6.9 mph - N/A   Clear
3:55 AM 24.8 °F 19.1 °F 24.8 °F 100% 29.98 in 10.0 mi West 4.6 mph - N/A   Clear
4:15 AM 24.8 °F 17.9 °F 24.8 °F 100% 29.97 in 10.0 mi West 5.8 mph - N/A   Clear
4:35 AM 24.8 °F 16.9 °F 23.0 °F 93% 29.98 in 10.0 mi WSW 6.9 mph - N/A   Clear
4:55 AM 24.8 °F 16.1 °F 23.0 °F 93% 29.98 in 10.0 mi WSW 8.1 mph - N/A   Clear
5:15 AM 24.8 °F 15.3 °F 23.0 °F 93% 29.98 in 10.0 mi WSW 9.2 mph - N/A   Clear
5:35 AM 24.8 °F 15.3 °F 23.0 °F 93% 29.97 in 10.0 mi WSW 9.2 mph - N/A   Clear
5:55 AM 24.8 °F 17.9 °F 23.0 °F 93% 29.98 in 10.0 mi West 5.8 mph - N/A   Scattered Clouds
6:15 AM 24.8 °F 19.1 °F 23.0 °F 93% 29.97 in 10.0 mi SW 4.6 mph - N/A   Mostly Cloudy
6:35 AM 26.6 °F - 24.8 °F 93% 29.96 in 10.0 mi Calm Calm - N/A   Overcast
6:55 AM 24.8 °F 19.1 °F 23.0 °F 93% 29.96 in 10.0 mi SW 4.6 mph - N/A   Scattered Clouds
7:35 AM 24.8 °F - 23.0 °F 93% 29.95 in 10.0 mi Calm Calm - N/A   Clear
7:55 AM 26.6 °F 21.2 °F 24.8 °F 93% 29.95 in 10.0 mi SSW 4.6 mph - N/A   Clear
8:15 AM 26.6 °F 21.2 °F 24.8 °F 93% 29.94 in 10.0 mi SSW 4.6 mph - N/A   Clear
8:35 AM 28.4 °F 23.3 °F 26.6 °F 93% 29.95 in 10.0 mi SW 4.6 mph - N/A   Clear
8:55 AM 28.4 °F 23.3 °F 26.6 °F 93% 29.95 in 10.0 mi SW 4.6 mph - N/A   Clear
9:15 AM 30.2 °F 25.4 °F 26.6 °F 86% 29.95 in 10.0 mi SW 4.6 mph - N/A   Clear
9:35 AM 32.0 °F 26.4 °F 28.4 °F 87% 29.95 in 10.0 mi SW 5.8 mph - N/A   Clear
9:55 AM 32.0 °F 26.4 °F 28.4 °F 87% 29.95 in 10.0 mi SW 5.8 mph - N/A   Clear
10:15 AM 32.0 °F 28.7 °F 28.4 °F 87% 29.95 in 10.0 mi West 3.5 mph - N/A   Partly Cloudy
10:35 AM 35.6 °F 31.7 °F 30.2 °F 81% 29.95 in 10.0 mi WSW 4.6 mph - N/A   Clear
10:55 AM 35.6 °F 29.2 °F 32.0 °F 87% 29.95 in 10.0 mi West 8.1 mph - N/A   Clear
11:15 AM 37.4 °F 29.3 °F 32.0 °F 81% 29.95 in 8.0 mi West 12.7 mph 18.4 mph N/A   Scattered Clouds
11:35 AM 35.6 °F 29.2 °F 32.0 °F 87% 29.94 in 5.0 mi WSW 8.1 mph - N/A Rain Light Rain
11:55 AM 35.6 °F 29.9 °F 32.0 °F 87% 29.94 in 5.0 mi West 6.9 mph - N/A Rain Light Rain
12:15 PM 35.6 °F 29.9 °F 33.8 °F 93% 29.93 in 3.0 mi SW 6.9 mph - N/A Rain Light Rain
12:35 PM 35.6 °F 30.7 °F 33.8 °F 93% 29.93 in 3.0 mi SW 5.8 mph - N/A Rain Light Rain
12:55 PM 33.8 °F 29.6 °F 32.0 °F 93% 29.92 in 3.0 mi SSW 4.6 mph - 0.01 in   Overcast
1:15 PM 33.8 °F 29.6 °F 32.0 °F 93% 29.93 in 6.0 mi South 4.6 mph - N/A Rain Light Rain
1:35 PM 32.0 °F 28.7 °F 32.0 °F 100% 29.91 in 3.0 mi SSE 3.5 mph - N/A Rain Light Rain
1:55 PM 32.0 °F 27.5 °F 32.0 °F 100% 29.90 in 3.0 mi SE 4.6 mph - 0.01 in Snow Light Snow
2:15 PM 32.0 °F 26.4 °F 32.0 °F 100% 29.88 in 5.0 mi ESE 5.8 mph - N/A   Overcast
2:35 PM 33.8 °F 27.7 °F 32.0 °F 93% 29.86 in 8.0 mi SE 6.9 mph - N/A   Overcast
2:55 PM 33.8 °F 27.7 °F 33.8 °F 100% 29.87 in 10.0 mi East 6.9 mph - N/A   Overcast
3:15 PM 35.6 °F 30.7 °F 33.8 °F 93% 29.87 in 10.0 mi East 5.8 mph - N/A   Overcast
3:35 PM 35.6 °F 30.7 °F 33.8 °F 93% 29.87 in 10.0 mi East 5.8 mph - N/A   Overcast
3:55 PM 35.6 °F 29.9 °F 35.6 °F 100% 29.87 in 10.0 mi ENE 6.9 mph - N/A   Overcast
4:15 PM 35.6 °F 30.7 °F 35.6 °F 100% 29.87 in 10.0 mi ENE 5.8 mph - N/A   Overcast
4:35 PM 35.6 °F 29.9 °F 35.6 °F 100% 29.87 in 10.0 mi ENE 6.9 mph - N/A   Mostly Cloudy
4:55 PM 37.4 °F 32.8 °F 35.6 °F 93% 29.87 in 10.0 mi ENE 5.8 mph - N/A   Overcast
5:15 PM 37.4 °F 32.8 °F 35.6 °F 93% 29.87 in 10.0 mi ENE 5.8 mph - N/A   Mostly Cloudy
5:35 PM 37.4 °F 32.8 °F 35.6 °F 93% 29.88 in 10.0 mi ENE 5.8 mph - N/A   Mostly Cloudy
5:55 PM 37.4 °F 33.8 °F 35.6 °F 93% 29.89 in 10.0 mi NE 4.6 mph - N/A   Mostly Cloudy
6:15 PM 37.4 °F 33.8 °F 35.6 °F 93% 29.89 in 10.0 mi NNE 4.6 mph - N/A   Scattered Clouds
6:35 PM 37.4 °F 33.8 °F 35.6 °F 93% 29.89 in 10.0 mi NNE 4.6 mph - N/A   Mostly Cloudy
6:55 PM 37.4 °F 33.8 °F 35.6 °F 93% 29.90 in 10.0 mi North 4.6 mph - N/A   Mostly Cloudy
7:15 PM 35.6 °F 31.7 °F 35.6 °F 100% 29.91 in 10.0 mi North 4.6 mph - N/A   Mostly Cloudy
7:35 PM 35.6 °F 31.7 °F 35.6 °F 100% 29.92 in 10.0 mi NNW 4.6 mph - N/A   Mostly Cloudy
7:55 PM 35.6 °F 31.7 °F 33.8 °F 93% 29.93 in 10.0 mi NNW 4.6 mph - N/A   Overcast
8:15 PM 35.6 °F 31.7 °F 33.8 °F 93% 29.93 in 10.0 mi NNW 4.6 mph - N/A   Scattered Clouds
8:35 PM 35.6 °F 32.8 °F 33.8 °F 93% 29.94 in 10.0 mi WNW 3.5 mph - N/A   Clear
8:55 PM 33.8 °F 29.6 °F 32.0 °F 93% 29.94 in 10.0 mi NNW 4.6 mph - N/A   Clear
9:15 PM 32.0 °F - 32.0 °F 100% 29.95 in 10.0 mi Calm Calm - N/A   Partly Cloudy
9:35 PM 32.0 °F 27.5 °F 32.0 °F 100% 29.96 in 10.0 mi WNW 4.6 mph - N/A   Mostly Cloudy
9:55 PM 33.8 °F 28.6 °F 33.8 °F 100% 29.97 in 10.0 mi NW 5.8 mph - N/A   Scattered Clouds
10:15 PM 35.6 °F 30.7 °F 33.8 °F 93% 29.97 in 10.0 mi NW 5.8 mph - N/A   Scattered Clouds
10:35 PM 33.8 °F 28.6 °F 33.8 °F 100% 29.98 in 10.0 mi NW 5.8 mph - N/A   Scattered Clouds
10:55 PM 33.8 °F 27.7 °F 33.8 °F 100% 29.99 in 10.0 mi NW 6.9 mph - N/A   Mostly Cloudy
11:15 PM 35.6 °F 28.6 °F 33.8 °F 93% 29.99 in 10.0 mi NW 9.2 mph - N/A   Partly Cloudy
11:35 PM 35.6 °F 29.2 °F 33.8 °F 93% 30.00 in 10.0 mi NNW 8.1 mph - N/A   Partly Cloudy
11:55 PM 35.6 °F 28.6 °F 33.8 °F 93% 30.01 in 10.0 mi NNW 9.2 mph - N/A   Mostly Cloudy